Date,TemperatureHighF,TemperatureAvgF,TemperatureLowF,DewpointHighF,DewpointAvgF,DewpointLowF,HumidityHigh,HumidityAvg,HumidityLow,PressureMaxIn,PressureMinIn,WindSpeedMaxMPH,WindSpeedAvgMPH,GustSpeedMaxMPH,PrecipitationSumIn
2012-6-5,56.6,56.3,56.0,45.2,44.9,44.6,67,66,64,28.98,28.98,0,0,0,0.00
2012-6-6,78.4,66.0,49.9,51.5,47.3,42.8,87,54,30,30.01,28.99,4,1,12,0.00
2012-6-7,82.3,68.5,53.0,53.7,49.0,43.9,86,53,28,30.05,29.97,13,2,15,0.00
2012-6-8,86.0,70.7,51.1,52.7,46.5,40.0,89,48,22,30.03,29.87,12,2,13,0.00
2012-6-9,88.2,79.2,64.8,53.2,51.0,47.9,62,39,26,29.92,29.82,15,4,16,0.00
2012-6-10,93.0,83.4,62.6,60.1,55.4,51.5,69,40,27,29.95,29.85,16,2,17,0.00
2012-6-11,84.5,76.4,69.1,71.9,63.8,56.6,91,65,53,29.86,29.74,16,3,17,0.08
2012-6-12,77.3,70.0,56.7,66.1,48.3,43.1,81,48,33,30.04,29.76,19,7,19,0.00
2012-6-13,78.5,63.7,49.5,47.1,41.8,33.3,83,49,24,30.15,30.03,10,1,12,0.00
2012-6-14,61.4,58.8,55.1,43.8,43.1,42.1,65,56,50,30.08,30.05,6,1,6,0.00
2012-6-15,90.3,74.4,56.8,54.4,51.0,45.8,77,47,22,30.08,30.00,4,1,12,0.00
2012-6-16,93.8,77.7,66.1,66.7,61.3,50.9,77,59,33,30.05,29.85,22,3,22,0.02
2012-6-17,82.9,73.5,67.2,70.7,62.5,53.9,93,70,38,29.87,29.77,15,4,15,0.22
2012-6-18,92.2,78.7,63.3,69.6,64.2,59.3,89,64,41,29.82,29.68,20,6,22,0.00
2012-6-19,93.7,83.7,74.5,68.2,63.6,60.3,64,52,37,29.95,29.81,19,7,20,0.00
2012-6-20,92.7,82.6,71.1,64.7,61.2,57.1,74,50,31,30.02,29.85,20,6,20,0.00
2012-6-21,90.3,78.1,64.5,67.9,62.6,59.2,86,60,44,29.90,29.78,18,6,21,0.00
2012-6-22,84.0,71.9,59.7,62.6,55.8,49.7,96,62,32,29.92,29.86,11,2,12,0.00
2012-6-23,86.6,73.4,57.6,57.0,52.6,48.9,84,51,29,29.97,29.91,8,1,10,0.00
2012-6-24,90.9,79.1,67.6,59.9,56.7,51.5,71,48,30,29.96,29.82,12,3,13,0.00
2012-6-25,80.4,71.3,60.2,60.1,50.2,41.3,78,50,28,29.96,29.84,11,3,16,0.00
2012-6-26,82.8,67.9,51.7,50.1,45.6,40.0,81,49,25,30.03,29.88,10,1,12,0.00
2012-6-27,90.0,75.0,57.3,52.5,49.2,46.7,74,44,23,29.98,29.77,17,4,17,0.00
2012-6-28,103.4,87.1,75.0,74.5,63.5,51.1,73,46,35,29.80,29.64,16,5,18,0.00
2012-6-29,89.0,77.1,64.1,74.2,66.6,56.8,91,71,45,29.92,29.63,35,2,37,0.57
2012-6-30,86.9,76.3,66.6,73.0,68.2,64.1,93,77,55,29.85,29.72,12,3,15,0.29
2012-7-1,91.8,77.3,67.9,73.6,67.4,59.8,95,74,45,29.95,29.79,23,2,24,0.00
2012-7-2,92.3,79.6,64.4,71.4,67.5,62.0,94,69,45,29.95,29.84,8,1,9,0.00
2012-7-3,94.3,84.1,74.4,72.2,67.5,62.9,80,59,39,29.87,29.75,13,4,14,0.00
2012-7-4,100.4,87.8,76.6,72.9,70.0,63.4,81,58,33,29.83,29.75,15,4,15,0.00
2012-7-5,100.0,87.2,76.4,73.2,70.0,64.2,85,60,33,29.87,29.79,13,2,13,0.00
2012-7-6,102.0,89.5,76.5,76.4,71.9,68.0,82,59,37,29.88,29.80,11,2,11,0.00
2012-7-7,101.2,89.5,78.0,76.1,71.7,66.5,77,58,35,29.86,29.79,13,3,14,0.00
2012-7-8,86.2,78.3,71.1,68.9,62.0,51.1,83,59,33,29.96,29.85,10,2,11,0.00
2012-7-9,89.4,75.8,61.2,62.6,58.7,56.1,88,58,36,29.98,29.89,11,2,11,0.00
2012-7-10,89.5,75.0,61.5,63.7,56.2,49.3,82,56,28,30.02,29.95,8,1,8,0.00
2012-7-11,69.1,66.2,63.7,55.1,54.2,53.3,70,65,59,30.03,30.01,2,0,2,0.00
2012-7-12,89.7,76.8,63.1,55.6,51.8,49.9,65,44,26,30.05,29.98,4,1,11,0.00
2012-7-13,92.0,80.2,67.8,67.3,62.2,53.1,81,56,33,30.03,29.93,4,1,12,0.00
2012-7-14,90.1,76.8,68.3,70.5,66.4,62.5,87,71,45,30.01,29.91,12,2,13,0.01
2012-7-15,92.1,79.7,70.3,71.5,67.2,63.5,92,68,42,30.00,29.89,12,3,14,0.00
2012-7-16,96.5,82.1,65.3,71.2,66.2,61.7,91,62,34,29.95,29.78,13,2,14,0.00
2012-7-17,98.3,84.9,75.3,72.3,69.4,66.2,79,61,38,29.80,29.70,13,3,15,0.00
2012-7-18,92.5,82.1,75.5,74.8,71.2,67.7,88,71,46,29.86,29.75,10,2,15,0.00
2012-7-19,81.4,74.3,69.1,75.4,70.4,67.1,95,88,75,29.93,29.77,11,1,14,2.52
2012-7-20,82.1,72.7,63.4,69.9,62.3,57.3,92,72,46,29.99,29.82,10,2,10,0.03
2012-7-21,83.5,72.7,59.6,68.2,61.9,57.0,93,71,45,30.06,29.96,6,1,7,0.00
2012-7-22,88.3,78.0,70.1,70.9,67.5,64.7,87,71,50,30.06,29.96,11,2,11,0.00
2012-7-23,93.1,81.1,70.3,75.7,70.4,65.9,90,71,52,29.98,29.80,12,3,15,0.16
2012-7-24,82.1,76.6,70.2,73.5,70.4,66.5,95,82,68,29.95,29.79,9,2,10,0.96
2012-7-25,89.7,77.7,67.4,78.8,68.2,58.7,90,73,55,29.88,29.56,13,2,14,0.00
2012-7-26,83.9,79.6,69.6,73.5,70.8,66.7,92,75,60,29.69,29.53,16,4,17,0.08
2012-7-27,86.3,73.5,66.8,71.3,66.9,63.9,95,81,51,29.85,29.66,14,2,16,0.08
2012-7-28,80.7,71.4,64.0,65.0,61.5,55.5,95,73,46,30.02,29.85,15,2,15,0.00
2012-7-29,83.2,71.6,59.0,65.6,60.2,54.7,95,70,40,30.06,29.92,6,1,8,0.00
2012-7-30,88.0,76.7,68.4,68.6,64.6,60.7,85,68,43,29.95,29.83,7,1,9,0.00
2012-7-31,84.2,74.1,64.0,73.0,65.8,61.0,93,76,59,29.93,29.73,17,3,17,0.43
2012-8-1,82.7,71.9,61.2,65.7,62.0,55.5,96,74,46,29.89,29.81,9,2,10,0.00
2012-8-2,87.5,74.7,62.3,71.6,64.7,59.5,92,73,47,29.85,29.76,6,1,7,0.00
2012-8-3,92.3,78.4,66.3,71.3,66.0,61.5,90,68,38,29.85,29.77,5,0,7,0.00
2012-8-4,88.8,77.2,67.6,77.3,70.5,65.0,93,80,66,29.87,29.74,26,2,27,0.47
2012-8-5,80.6,73.3,60.9,70.0,65.2,55.4,96,78,50,30.07,29.81,11,3,13,0.11
2012-8-6,79.9,67.9,54.2,61.7,56.3,52.5,95,69,43,30.11,29.97,5,1,7,0.00
2012-8-7,85.6,72.6,58.7,66.2,60.7,55.0,90,68,46,29.97,29.85,5,2,11,0.00
2012-8-8,85.2,75.5,67.6,70.4,65.4,62.3,87,72,53,29.89,29.84,4,2,11,0.00
2012-8-9,72.7,68.1,63.5,66.7,64.0,61.3,94,87,69,29.86,29.70,4,1,10,0.04
2012-8-10,63.4,58.1,55.6,61.3,56.0,53.0,95,93,85,29.81,29.67,13,5,16,0.14
2012-8-11,75.5,65.9,58.3,63.1,58.8,55.8,93,79,59,29.93,29.79,14,4,16,0.00
2012-8-12,76.7,66.0,56.2,64.3,58.4,54.4,95,78,53,29.98,29.91,7,1,8,0.00
2012-8-13,69.1,64.6,62.2,63.2,60.6,58.2,95,87,78,29.95,29.85,6,1,7,0.27
2012-8-14,77.0,67.1,61.4,65.1,61.7,60.1,96,84,60,29.89,29.82,8,2,8,0.07
2012-8-15,65.2,64.0,62.4,61.5,61.0,59.7,93,90,87,29.86,29.85,3,0,4,0.00
2012-8-16,73.4,67.8,64.2,66.3,62.8,59.6,94,84,69,29.89,29.73,6,3,15,0.09
2012-8-17,74.8,65.7,54.6,63.9,58.4,49.9,95,79,56,29.93,29.81,5,2,12,0.01
2012-8-18,74.3,61.8,47.4,54.7,50.8,46.0,96,70,44,29.98,29.87,2,1,9,0.00
2012-8-19,75.7,65.6,54.4,56.8,52.5,48.1,91,65,38,29.91,29.83,3,1,9,0.00
2012-8-20,75.9,63.8,53.4,60.1,54.9,50.6,91,74,48,29.93,29.87,3,1,10,0.02
2012-8-21,77.6,65.6,54.8,59.2,53.3,45.2,96,69,34,30.04,29.93,4,1,9,0.00
2012-8-22,80.7,66.2,53.2,58.5,54.9,50.7,92,69,37,30.09,30.00,4,1,11,0.00
2012-8-23,86.3,71.2,57.3,62.2,57.0,53.1,87,64,36,30.08,29.99,8,1,8,0.00
2012-8-24,89.1,74.4,60.0,65.4,59.9,55.5,86,63,38,30.03,29.94,10,1,10,0.00
2012-8-25,91.4,76.0,63.1,68.0,61.7,56.5,84,64,32,30.02,29.95,7,1,8,0.00
2012-8-26,88.8,74.7,64.9,69.8,64.7,59.9,88,72,45,30.02,29.92,15,2,15,0.00
2012-8-27,83.5,73.5,66.3,72.0,66.3,57.8,96,80,51,29.97,29.86,12,2,15,0.66
2012-8-28,81.7,69.8,58.6,65.4,60.0,55.5,91,72,52,30.07,29.95,9,2,10,0.00
2012-8-29,81.0,69.2,57.5,64.4,59.2,55.4,95,73,46,30.04,29.95,6,1,7,0.00
2012-8-30,84.5,70.1,57.3,63.4,59.4,55.0,94,71,42,30.04,29.93,10,1,12,0.00
2012-8-31,90.2,76.6,63.3,74.6,66.2,56.7,90,71,55,30.02,29.94,13,3,13,0.00
2012-9-1,78.8,74.6,71.0,74.8,71.9,68.7,95,91,84,30.00,29.90,5,1,6,0.04
2012-9-2,82.3,74.5,69.9,73.8,70.7,68.4,97,88,72,29.92,29.79,9,2,12,0.01
2012-9-3,88.5,76.9,67.3,74.1,69.7,65.5,95,80,55,29.84,29.76,8,1,9,0.00
2012-9-4,84.5,75.2,66.0,72.2,69.4,64.8,97,83,63,29.82,29.76,8,1,11,0.00
2012-9-5,78.7,72.2,66.4,72.4,68.0,64.5,96,87,75,29.83,29.72,14,1,18,0.07
2012-9-6,85.8,73.8,62.7,71.1,63.6,54.4,94,73,41,29.85,29.76,11,2,11,0.00
2012-9-7,82.8,67.6,58.4,69.6,62.0,55.7,95,83,51,29.85,29.64,14,1,15,0.30
2012-9-8,71.0,61.4,54.6,60.7,54.2,49.8,95,79,52,29.81,29.65,17,3,17,0.14
2012-9-9,72.4,60.9,52.4,58.1,53.4,50.1,97,78,53,30.05,29.80,8,2,8,0.12
2012-9-10,74.7,61.2,48.6,54.2,48.7,43.1,92,67,36,30.18,30.05,7,1,8,0.00
2012-9-11,80.4,65.4,53.0,57.7,52.5,48.1,86,66,39,30.16,30.05,15,2,15,0.00
2012-9-12,83.3,68.1,54.2,61.0,55.8,50.5,88,67,41,30.16,30.07,15,2,15,0.00
2012-9-13,82.3,71.1,59.7,63.0,59.2,56.0,90,67,44,30.18,30.09,12,3,13,0.09
2012-9-14,72.8,60.8,52.3,57.0,51.5,45.4,95,75,44,30.25,30.16,10,3,11,0.46
2012-9-15,74.3,60.2,47.7,54.6,49.1,45.2,94,70,40,30.27,30.10,7,1,8,0.00
2012-9-16,76.8,63.0,51.4,55.3,49.9,45.3,90,66,34,30.11,29.95,8,1,10,0.00
2012-9-17,75.5,64.1,52.6,61.8,55.5,48.1,91,75,56,29.96,29.66,10,2,13,0.00
2012-9-18,64.8,57.2,47.1,62.4,50.5,36.2,95,79,49,29.96,29.60,13,4,15,0.27
2012-9-19,68.8,55.3,43.3,45.2,41.0,37.8,92,63,34,30.08,29.91,14,3,16,0.00
2012-9-20,72.8,60.6,51.3,54.5,46.2,40.8,80,60,37,29.92,29.80,16,4,18,0.01
2012-9-21,70.7,55.9,47.4,52.3,45.0,38.3,93,70,33,29.90,29.74,11,2,15,0.04
2012-9-22,52.3,50.0,46.5,50.0,48.2,44.8,95,94,92,29.74,29.71,4,0,5,0.00
2012-9-26,73.8,65.2,55.4,64.1,59.9,50.0,96,84,68,30.05,29.82,4,2,10,0.00
2012-9-27,71.2,59.6,51.4,58.1,51.9,47.9,89,76,60,30.11,30.04,3,1,9,0.00
2012-9-28,67.1,57.7,51.8,52.2,49.9,48.0,92,77,54,30.08,30.02,4,1,10,0.00
2012-9-29,72.7,58.3,45.8,51.1,46.7,43.2,96,69,36,30.06,29.89,5,1,12,0.00
2012-9-30,67.1,55.2,43.3,50.1,45.6,41.4,95,73,44,29.90,29.84,4,1,11,0.00
2012-10-1,64.5,54.4,41.9,49.9,45.1,39.8,93,72,53,29.89,29.75,3,1,9,0.00
2012-10-2,63.6,59.3,52.3,57.5,54.2,46.8,94,83,70,29.83,29.73,10,2,11,0.04
2012-10-3,61.4,58.6,54.4,58.8,56.2,51.8,96,92,83,30.00,29.83,10,2,13,0.04
2012-10-4,79.2,65.1,53.2,58.6,54.3,50.8,93,71,40,30.07,29.95,16,4,22,0.02
2012-10-5,59.4,49.1,40.7,56.6,45.7,38.5,94,88,78,30.06,29.97,9,3,11,0.22
2012-10-6,48.6,41.9,34.6,39.5,34.9,31.2,93,77,60,30.12,29.98,12,3,12,0.00
2012-10-7,51.5,43.3,39.7,40.3,36.5,33.4,86,77,61,30.14,30.07,11,2,13,0.00
2012-10-8,56.4,42.8,30.8,35.8,30.5,27.4,92,66,34,30.19,30.04,10,2,12,0.00
2012-10-9,63.8,50.0,38.5,41.5,36.6,30.6,79,62,40,30.08,29.81,18,4,18,0.00
2012-10-10,53.9,49.5,44.6,43.5,42.5,41.5,92,78,64,29.84,29.79,13,5,16,0.15
2012-10-23,66.6,63.0,59.9,60.6,57.8,54.7,93,83,73,29.93,29.86,8,3,16,0.01
2012-10-24,78.1,67.1,59.6,63.5,58.9,55.3,92,76,58,29.95,29.87,6,3,16,0.00
2012-10-25,76.6,67.7,59.6,60.7,56.8,53.8,81,69,55,29.89,29.73,11,6,24,0.00
2012-10-26,65.0,45.7,36.6,57.3,38.9,32.8,91,78,59,30.21,29.81,8,5,18,0.12
2012-10-27,51.3,40.5,32.6,35.5,32.3,29.5,89,74,48,30.22,30.11,8,4,16,0.00
2012-10-28,46.7,40.1,34.1,34.8,32.7,30.7,89,76,59,30.19,30.11,9,5,18,0.00
2012-10-29,46.9,41.3,34.0,30.2,25.8,21.6,78,55,40,30.13,29.84,20,9,24,0.00
2012-10-30,40.6,38.9,37.2,37.1,35.1,25.2,91,87,54,29.82,29.56,21,9,27,0.21
2012-10-31,44.5,40.3,37.7,38.9,36.9,35.0,92,88,78,29.75,29.60,16,6,22,0.05
2012-11-1,51.7,42.3,34.5,38.2,32.2,26.1,86,69,40,29.82,29.73,14,4,16,0.00
2012-11-2,48.6,39.8,33.1,34.7,31.8,28.4,90,74,54,30.08,29.81,14,3,14,0.00
2012-11-3,44.2,35.5,28.3,34.5,30.7,26.5,94,83,64,30.18,30.08,8,2,9,0.00
2012-11-4,43.1,34.3,27.0,31.7,28.5,23.4,90,80,61,30.19,30.12,11,1,11,0.00
2012-11-5,45.4,32.9,23.0,31.8,26.4,20.4,92,78,54,30.19,30.10,7,1,7,0.01
2012-11-6,47.4,36.6,25.6,34.0,29.1,22.4,91,75,54,30.11,29.90,11,1,13,0.00
2012-11-7,49.7,40.3,33.3,36.8,31.9,27.2,90,73,51,30.11,29.90,10,2,12,0.00
2012-11-8,49.2,39.1,28.8,37.5,32.5,25.9,92,78,58,30.20,30.11,11,2,11,0.00
2012-11-9,59.9,46.4,32.9,46.7,38.8,30.8,94,76,53,30.14,29.99,14,2,15,0.08
2012-11-10,69.5,58.6,51.8,52.6,46.5,42.2,73,64,54,30.05,29.93,18,6,21,0.01
2012-11-11,68.0,60.2,53.2,50.8,46.8,42.7,72,62,50,30.03,29.83,27,9,32,0.00
2012-11-12,61.7,39.9,32.1,50.9,33.3,23.7,94,78,55,30.28,29.84,21,9,26,0.34
2012-11-13,38.3,32.2,25.3,25.5,23.3,20.9,84,70,57,30.50,30.28,18,4,22,0.00
2012-11-14,41.7,31.7,23.6,29.6,25.0,20.0,87,77,59,30.55,30.40,7,0,7,0.00
2012-11-15,45.1,34.4,26.0,32.5,28.2,23.2,92,79,58,30.41,30.30,6,1,6,0.01
2012-11-16,52.2,39.1,27.0,36.1,30.8,24.7,93,74,49,30.47,30.35,5,0,5,0.00
2012-11-17,54.9,40.1,29.9,36.7,30.4,25.9,87,70,43,30.55,30.46,10,1,10,0.00
2012-11-18,57.9,42.2,32.5,38.3,32.8,29.4,90,72,39,30.47,30.34,8,1,8,0.00
2012-11-19,57.4,44.7,34.7,38.1,34.3,29.5,85,68,47,30.35,30.11,7,1,8,0.00
2012-11-20,52.4,47.9,42.7,43.5,40.4,36.0,89,75,65,30.12,30.02,5,0,5,0.00
2012-11-21,54.6,43.8,34.2,48.6,40.8,32.9,97,90,72,30.22,30.11,8,1,9,0.01
2012-11-22,61.2,50.8,41.8,47.4,43.3,39.7,94,77,57,30.14,29.78,20,7,24,0.03
2012-11-23,53.6,36.7,30.5,49.8,30.5,22.1,91,78,70,30.09,29.76,27,11,27,0.05
2012-11-24,32.0,29.9,27.4,25.8,23.7,20.3,81,77,73,30.17,30.04,17,7,17,0.00
2012-11-25,42.6,33.3,27.5,29.0,25.5,21.1,84,73,57,30.05,29.84,15,5,17,0.00
2012-11-26,38.4,33.3,28.7,31.8,27.0,24.0,90,78,64,30.28,30.00,11,2,11,0.00
2012-11-27,36.9,31.4,26.8,26.1,22.7,17.3,83,70,56,30.37,30.24,10,2,11,0.00
2012-11-28,41.6,32.6,26.6,29.1,22.6,17.7,74,67,53,30.36,30.24,14,4,19,0.00
2012-11-29,48.2,38.8,29.9,32.6,28.8,24.2,79,68,51,30.31,30.13,17,4,17,0.00
2012-11-30,52.2,41.6,34.1,36.8,32.5,28.8,83,70,54,30.14,30.04,9,1,11,0.00
2012-12-1,59.5,46.7,32.2,50.8,40.9,30.4,96,81,66,30.16,29.95,24,4,25,0.00
2012-12-2,58.4,55.6,51.8,54.9,51.2,46.0,96,86,66,30.03,29.88,23,5,25,0.12
2012-12-3,63.5,58.8,51.2,60.9,56.5,49.9,98,92,80,30.03,29.84,19,5,24,0.01
2012-12-4,62.7,50.9,41.4,57.0,44.8,35.1,93,80,68,30.14,29.85,17,6,21,0.32
2012-12-5,41.0,33.7,28.4,35.3,27.3,23.8,85,78,64,30.38,30.14,11,4,15,0.00
2012-12-6,41.7,33.8,27.2,36.0,29.2,23.1,89,83,75,30.26,29.92,8,1,9,0.00
2012-12-7,46.2,42.7,38.8,43.3,40.3,35.6,96,92,86,29.93,29.80,5,1,7,0.09
2012-12-8,43.4,39.5,33.7,42.5,38.1,31.4,97,95,91,30.08,29.76,11,3,13,0.05
2012-12-9,44.5,38.2,33.7,43.7,36.6,31.5,97,94,91,30.08,29.64,12,3,15,0.13
2012-12-10,42.7,34.6,31.8,41.9,32.7,29.7,97,93,88,29.88,29.64,15,7,19,0.00
2012-12-11,33.7,30.3,26.5,31.0,26.1,23.3,95,84,68,30.15,29.86,15,6,17,0.01
2012-12-12,42.2,31.9,25.0,29.8,25.4,21.7,89,78,56,30.34,30.16,11,3,13,0.00
2012-12-13,45.7,35.4,28.1,30.7,27.0,24.0,85,72,48,30.33,30.14,16,4,18,0.00
2012-12-14,49.7,38.1,30.5,33.7,29.3,25.1,84,71,51,30.22,30.09,7,2,9,0.00
2012-12-15,49.4,42.8,37.4,48.0,38.2,31.4,95,84,71,30.09,29.61,14,3,15,0.10
2012-12-16,51.0,47.3,40.1,49.3,44.7,36.8,95,90,84,29.66,29.54,13,6,16,0.03
2012-12-17,40.1,38.5,37.4,37.1,35.3,34.6,93,88,83,29.70,29.58,8,2,10,0.00
2012-12-18,39.1,36.1,31.5,36.5,33.2,29.5,93,89,82,29.78,29.63,10,3,17,0.02
2012-12-19,42.9,39.5,35.8,38.0,35.7,33.3,93,86,74,30.03,29.67,10,2,12,0.01
2012-12-20,50.0,40.4,33.1,48.0,38.2,31.3,95,92,81,29.93,29.07,22,6,26,1.19
2012-12-21,35.1,33.4,32.1,33.8,30.2,26.9,95,88,80,30.01,29.14,29,14,32,0.07
2012-12-22,32.1,28.0,24.1,27.1,23.8,20.5,90,84,77,30.15,29.99,17,6,23,0.00
2012-12-23,35.1,28.0,22.4,29.9,23.8,19.1,89,84,75,30.01,29.89,8,2,10,0.00
2012-12-24,32.1,29.1,24.5,29.8,26.3,21.7,94,89,85,30.01,29.77,10,3,13,0.00
2012-12-25,34.4,28.8,22.9,27.6,24.4,20.4,91,84,72,30.25,30.01,9,3,13,0.01
2012-12-26,30.3,28.5,25.6,26.3,24.8,22.3,92,86,80,30.17,29.80,20,9,25,0.00
2012-12-27,31.0,27.0,23.2,26.5,23.1,19.6,89,85,81,30.15,29.95,12,4,16,0.00
2012-12-28,30.8,28.7,26.6,27.6,26.0,24.6,93,90,86,30.13,29.86,6,1,6,0.04
2012-12-29,31.0,28.2,26.3,28.4,26.1,23.5,93,92,87,30.12,29.80,14,4,17,0.01
2012-12-30,28.2,23.2,17.9,23.5,18.9,14.7,90,84,73,30.35,30.12,16,7,18,0.00
2012-12-31,34.9,30.5,24.5,29.9,25.9,19.8,93,83,72,30.19,29.97,17,8,21,0.00
2013-1-1,29.0,25.2,16.4,26.6,20.0,12.6,91,80,68,30.12,30.01,11,3,12,0.01